Terminal Aerodrome Forecast
Issued by NWS Twin Cities, MN

Home | Current Version | Previous Version | Graphics & Text | Print | Product List | Glossary On
Versions: 1 2 3 4 5 6 7 8 9 10 11 12 13 14 15 16 17 18 19 20 21 22 23 24 25 26 27 28 29 30 31 32 33
000
FTUS43 KMPX 272031 AAA
TAFMSP
TAF AMD
KMSP 272031Z 2721/2824 13007KT P6SM BKN015 OVC030
     FM280100 13004KT P6SM SCT020 OVC040
     FM280800 14003KT 6SM BR SCT005 SCT015
     FM281000 15005KT 4SM BR BKN005
     FM281400 15006KT P6SM SCT025 BKN120
     FM281800 17008KT P6SM SCT040 SCT250=

USA.gov is the U.S. government's official web portal to all federal, state and local government web resources and services.